METAR Data
IDs: Format: Raw Decoded Include TAF

Data at: 1534 UTC 18 Aug 2019

PAKH 181456Z AUTO 34004KT 10SM CLR 12/07 A3009 RMK AO2 SLP191 T01170072 58014 $
PAKH 181356Z AUTO 01005KT 10SM CLR 12/07 A3011 RMK AO2 SLP196 T01220067 $
PAKH 181256Z AUTO 00000KT 10SM CLR 11/06 A3012 RMK AO2 SLP201 T01110061 $
PAKH 181156Z AUTO 03003KT 10SM CLR 11/06 A3013 RMK AO2 SLP205 T01110056 10161 20100 58013 $
PAKH 181056Z AUTO 03005KT 10SM CLR 12/06 A3015 RMK AO2 SLP211 T01170061 $
PAKH 180956Z AUTO 03003KT 10SM CLR 12/09 A3015 RMK AO2 SLP212 T01220094 $
PAKH 180856Z AUTO 29003KT 10SM CLR 14/11 A3017 RMK AO2 SLP217 T01390106 402610128 58003 $
PAKH 180756Z AUTO 00000KT 10SM CLR 14/11 A3018 RMK AO2 SLP221 T01390106 $
PAKH 180656Z AUTO 00000KT 10SM CLR 16/11 A3018 RMK AO2 SLP220 T01560111 $
PAKH 180556Z AUTO 00000KT 10SM CLR 16/11 A3018 RMK AO2 SLP220 T01610111 10261 20161 53006 $
PAKH 180456Z AUTO 34003KT 10SM CLR 17/12 A3017 RMK AO2 SLP217 T01720122 $
PAKH 180356Z AUTO 00000KT 10SM CLR 21/13 A3017 RMK AO2 SLP217 T02110133 $
PAKH 180256Z AUTO 17004KT 10SM CLR 21/11 A3016 RMK AO2 SLP214 T02110111 53003 $
PAKH 180156Z AUTO 34012KT 10SM CLR 24/07 A3014 RMK AO2 SLP208 T02440067 $
PAKH 180056Z AUTO 33006KT 10SM CLR 26/04 A3015 RMK AO2 SLP209 T02610044 $
PAKH 172356Z AUTO 36008KT 10SM CLR 26/07 A3015 RMK AO2 SLP210 T02560067 10256 20178 55005 $
PAKH 172256Z AUTO 36008KT 10SM CLR 25/12 A3015 RMK AO2 SLP210 T02500117 $
PAKH 172156Z AUTO 34010G15KT 10SM CLR 23/12 A3016 RMK AO2 SLP214 T02280122 $
PAKH 172056Z AUTO 31011KT 10SM CLR 22/14 A3017 RMK AO2 SLP216 T02170139 50000 $
PAKH 171956Z AUTO VRB06G14KT 10SM CLR 22/14 A3017 RMK AO2 SLP218 T02170139 $
PAKH 171856Z AUTO 19007KT 10SM CLR 21/14 A3018 RMK AO2 PK WND 31029/1804 SLP222 T02110139 $
PAKH 171756Z AUTO 31022G30KT 10SM CLR 18/13 A3017 RMK AO2 PK WND 31031/1741 SLP216 T01780128 10194 20161 58010 $
PAKH 171656Z AUTO VRB05G16KT 10SM CLR 17/13 A3019 RMK AO2 SLP222 T01720128 $
PAKH 171556Z AUTO 31011G18KT 10SM CLR 18/12 A3019 RMK AO2 SLP224 T01780117 $
PAKH 171456Z AUTO 35010G21KT 10SM CLR 16/12 A3019 RMK AO2 PK WND 33028/1442 SLP225 T01610117 55007 $
PAKH 171356Z AUTO 32020G28KT 10SM CLR 17/12 A3018 RMK AO2 PK WND 31028/1353 SLP222 T01670117 $
PAKH 171256Z AUTO 33010G23KT 240V020 10SM CLR 18/11 A3020 RMK AO2 WSHFT 1222 SLP228 T01780111 $
PAKH 171242Z AUTO 29009G21KT 250V320 10SM CLR 18/11 A3020 RMK AO2 WSHFT 1222 $
PAKH 171156Z AUTO VRB06KT 10SM CLR 17/11 A3022 RMK AO2 WSHFT 1102 SLP232 T01720111 10189 20167 56013 $
PAKH 171122Z AUTO 36007G19KT 320V060 10SM CLR 17/11 A3023 RMK AO2 WSHFT 1102 $
PAKH 171056Z AUTO 25009G16KT 220V290 10SM CLR 18/11 A3023 RMK AO2 PK WND 33032/0959 WSHFT 0955 SLP237 T01830106 $
PAKH 171015Z AUTO VRB06G27KT 10SM CLR 17/11 A3023 RMK AO2 PK WND 33032/0959 WSHFT 0955 $
PAKH 170956Z AUTO 34014G31KT 310V010 10SM CLR 17/12 A3023 RMK AO2 PK WND 33031/0951 SLP237 T01670117 $
PAKH 170856Z AUTO 13006KT 10SM CLR 17/12 A3025 RMK AO2 SLP246 T01720122 402220150 58006 $
PAKH 170756Z AUTO VRB05KT 10SM CLR 17/12 A3027 RMK AO2 SLP250 T01720117 $
PAKH 170656Z AUTO 30013G19KT 10SM CLR 18/12 A3027 RMK AO2 PK WND 31026/0635 SLP250 T01780117 $
PAKH 170556Z AUTO 27006KT 10SM CLR 18/11 A3027 RMK AO2 SLP252 T01830111 10222 20183 58003 $
PAKH 170456Z AUTO 28008KT 250V310 10SM CLR 19/12 A3029 RMK AO2 PK WND 32026/0358 SLP259 T01940117 $
PAKH 170356Z AUTO 32020G30KT 10SM CLR 20/12 A3028 RMK AO2 PK WND 30032/0259 SLP256 T02000117 $